Arvada, Colorado
Current Conditions -  °F | °C
As of 11:15 PM on Wednesday 28 Jan 2015 (Local Time) from KBJC Reporting Station
Overcast Overcast  
Wind Chill:   Ceiling: 2400
Heat Index:   Visibility: 10mi
Dew Point:   Wind: 10mph
Humidity: 70%   Direction: 350°N
Pressure: 30.36"   Gusts: NA
Location:  39.8°N, 105.08°W
Report Text: KBJC 290615Z AUTO 35009KT 10SM OVC024 05/00 A3036 RMK AO2
Loading
Personal Weather Stations






























Interactive Weather Map New forecast layout! Learn more

10-Day Weather Forecast

Advertisements
Track Severe Weather on mobile